Time,TemperatureF,DewpointF,PressureIn,WindDirection,WindDirectionDegrees,WindSpeedMPH,WindSpeedGustMPH,Humidity,HourlyPrecipIn,Conditions,Clouds,dailyrainin,SolarRadiationWatts/m^2,SoftwareType,DateUTC
2013-07-25 00:02:00,53.0,52.0,-100.00,SSW,210,1.0,3.0,98,0.00,,,0.00,0.000000,,2013-07-25 05:02:00,
2013-07-25 00:12:00,53.0,52.0,-100.00,SSW,210,1.0,3.0,98,0.00,,,0.00,0.000000,,2013-07-25 05:12:00,
2013-07-25 00:22:00,53.0,52.0,-100.00,SSW,210,1.0,3.0,98,0.00,,,0.00,0.000000,,2013-07-25 05:22:00,
2013-07-25 00:32:00,53.0,52.0,-100.00,SSW,210,1.0,3.0,98,0.00,,,0.00,0.000000,,2013-07-25 05:32:00,
2013-07-25 01:02:00,53.0,52.0,-100.00,SSE,165,0.0,2.0,98,0.00,,,0.00,0.000000,,2013-07-25 06:02:00,
2013-07-25 01:12:00,53.0,52.0,-100.00,SSE,165,0.0,2.0,98,0.00,,,0.00,0.000000,,2013-07-25 06:12:00,
2013-07-25 01:22:00,53.0,52.0,-100.00,SSE,165,0.0,2.0,98,0.00,,,0.00,0.000000,,2013-07-25 06:22:00,
2013-07-25 01:32:00,53.0,52.0,-100.00,SSE,165,0.0,2.0,98,0.00,,,0.00,0.000000,,2013-07-25 06:32:00,
2013-07-25 02:02:00,51.0,51.0,-100.00,SSE,164,0.0,2.0,99,0.00,,,0.00,0.000000,,2013-07-25 07:02:00,
2013-07-25 02:12:00,51.0,51.0,-100.00,SSE,164,0.0,2.0,99,0.00,,,0.00,0.000000,,2013-07-25 07:12:00,
2013-07-25 02:22:00,51.0,51.0,-100.00,SSE,164,0.0,2.0,99,0.00,,,0.00,0.000000,,2013-07-25 07:22:00,
2013-07-25 02:33:00,51.0,51.0,-100.00,SSE,164,0.0,2.0,99,0.00,,,0.00,0.000000,,2013-07-25 07:33:00,
2013-07-25 03:02:00,52.0,51.0,-100.00,South,175,1.0,4.0,98,0.00,,,0.00,0.000000,,2013-07-25 08:02:00,
2013-07-25 03:12:00,52.0,51.0,-100.00,South,175,1.0,4.0,98,0.00,,,0.00,0.000000,,2013-07-25 08:12:00,
2013-07-25 03:22:00,52.0,51.0,-100.00,South,175,1.0,4.0,98,0.00,,,0.00,0.000000,,2013-07-25 08:22:00,
2013-07-25 03:32:00,52.0,51.0,-100.00,South,175,1.0,4.0,98,0.00,,,0.00,0.000000,,2013-07-25 08:32:00,
2013-07-25 04:02:00,52.0,52.0,-100.00,South,175,2.0,5.0,99,0.00,,,0.00,0.000000,,2013-07-25 09:02:00,
2013-07-25 04:12:00,52.0,52.0,-100.00,South,175,2.0,5.0,99,0.00,,,0.00,0.000000,,2013-07-25 09:12:00,
2013-07-25 04:22:00,52.0,52.0,-100.00,South,175,2.0,5.0,99,0.00,,,0.00,0.000000,,2013-07-25 09:22:00,
2013-07-25 04:33:00,52.0,52.0,-100.00,South,175,2.0,5.0,99,0.00,,,0.00,0.000000,,2013-07-25 09:33:00,
2013-07-25 05:02:00,51.0,51.0,-100.00,South,179,0.0,2.0,99,0.00,,,0.00,0.000000,,2013-07-25 10:02:00,
2013-07-25 05:12:00,51.0,51.0,-100.00,South,179,0.0,2.0,99,0.00,,,0.00,0.000000,,2013-07-25 10:12:00,
2013-07-25 05:22:00,51.0,51.0,-100.00,South,179,0.0,2.0,99,0.00,,,0.00,0.000000,,2013-07-25 10:22:00,
2013-07-25 05:32:00,51.0,51.0,-100.00,South,179,0.0,2.0,99,0.00,,,0.00,0.000000,,2013-07-25 10:32:00,
2013-07-25 06:02:00,52.0,52.0,-100.00,South,186,1.0,3.0,99,0.00,,,0.00,1.000000,,2013-07-25 11:02:00,
2013-07-25 06:12:00,52.0,52.0,-100.00,South,186,1.0,3.0,99,0.00,,,0.00,1.000000,,2013-07-25 11:12:00,
2013-07-25 06:22:00,52.0,52.0,-100.00,South,186,1.0,3.0,99,0.00,,,0.00,1.000000,,2013-07-25 11:22:00,
2013-07-25 06:32:00,52.0,52.0,-100.00,South,186,1.0,3.0,99,0.00,,,0.00,1.000000,,2013-07-25 11:32:00,
2013-07-25 07:03:00,55.0,53.0,-100.00,SW,221,2.0,6.0,94,0.00,,,0.00,33.000000,,2013-07-25 12:03:00,
2013-07-25 07:12:00,55.0,53.0,-100.00,SW,221,2.0,6.0,94,0.00,,,0.00,33.000000,,2013-07-25 12:12:00,
2013-07-25 07:22:00,55.0,53.0,-100.00,SW,221,2.0,6.0,94,0.00,,,0.00,33.000000,,2013-07-25 12:22:00,
2013-07-25 07:32:00,55.0,53.0,-100.00,SW,221,2.0,6.0,94,0.00,,,0.00,33.000000,,2013-07-25 12:32:00,
2013-07-25 08:02:00,60.0,55.0,-100.00,SSW,208,3.0,6.0,83,0.00,,,0.00,218.000000,,2013-07-25 13:02:00,
2013-07-25 08:12:00,60.0,55.0,-100.00,SSW,208,3.0,6.0,83,0.00,,,0.00,218.000000,,2013-07-25 13:12:00,
2013-07-25 08:22:00,60.0,55.0,-100.00,SSW,208,3.0,6.0,83,0.00,,,0.00,218.000000,,2013-07-25 13:22:00,
2013-07-25 08:33:00,60.0,55.0,-100.00,SSW,208,3.0,6.0,83,0.00,,,0.00,218.000000,,2013-07-25 13:33:00,
2013-07-25 09:02:00,61.0,55.0,-100.00,SSW,211,3.0,9.0,81,0.00,,,0.00,283.000000,,2013-07-25 14:02:00,
2013-07-25 09:12:00,61.0,55.0,-100.00,SSW,211,3.0,9.0,81,0.00,,,0.00,283.000000,,2013-07-25 14:12:00,
2013-07-25 09:22:00,61.0,55.0,-100.00,SSW,211,3.0,9.0,81,0.00,,,0.00,283.000000,,2013-07-25 14:22:00,
2013-07-25 09:33:00,61.0,55.0,-100.00,SSW,211,3.0,9.0,81,0.00,,,0.00,283.000000,,2013-07-25 14:33:00,
2013-07-25 10:02:00,65.0,58.0,-100.00,SW,235,3.0,10.0,77,0.00,,,0.00,272.000000,,2013-07-25 15:02:00,
2013-07-25 10:12:00,65.0,58.0,-100.00,SW,235,3.0,10.0,77,0.00,,,0.00,272.000000,,2013-07-25 15:12:00,
2013-07-25 10:22:00,65.0,58.0,-100.00,SW,235,3.0,10.0,77,0.00,,,0.00,272.000000,,2013-07-25 15:22:00,
2013-07-25 10:32:00,65.0,58.0,-100.00,SW,235,3.0,10.0,77,0.00,,,0.00,272.000000,,2013-07-25 15:32:00,
2013-07-25 11:02:00,66.0,57.0,-100.00,SW,224,5.0,10.0,74,0.00,,,0.00,278.000000,,2013-07-25 16:02:00,
2013-07-25 11:12:00,66.0,57.0,-100.00,SW,224,5.0,10.0,74,0.00,,,0.00,278.000000,,2013-07-25 16:12:00,
2013-07-25 11:22:00,66.0,57.0,-100.00,SW,224,5.0,10.0,74,0.00,,,0.00,278.000000,,2013-07-25 16:22:00,
2013-07-25 11:33:00,66.0,57.0,-100.00,SW,224,5.0,10.0,74,0.00,,,0.00,278.000000,,2013-07-25 16:33:00,
2013-07-25 12:03:00,72.0,59.0,-100.00,SW,217,6.0,13.0,63,0.00,,,0.00,595.000000,,2013-07-25 17:03:00,
2013-07-25 12:12:00,72.0,59.0,-100.00,SW,217,6.0,13.0,63,0.00,,,0.00,595.000000,,2013-07-25 17:12:00,
2013-07-25 12:22:00,72.0,59.0,-100.00,SW,217,6.0,13.0,63,0.00,,,0.00,595.000000,,2013-07-25 17:22:00,
2013-07-25 12:32:00,72.0,59.0,-100.00,SW,217,6.0,13.0,63,0.00,,,0.00,595.000000,,2013-07-25 17:32:00,
2013-07-25 13:02:00,73.0,59.0,-100.00,SSW,204,5.0,13.0,61,0.00,,,-99.99,698.000000,,2013-07-25 18:02:00,
2013-07-25 13:12:00,73.0,59.0,-100.00,SSW,204,5.0,13.0,61,0.00,,,-99.99,698.000000,,2013-07-25 18:12:00,
2013-07-25 13:22:00,73.0,59.0,-100.00,SSW,204,5.0,13.0,61,0.00,,,-99.99,698.000000,,2013-07-25 18:22:00,
2013-07-25 13:33:00,73.0,59.0,-100.00,SSW,204,5.0,13.0,61,0.00,,,-99.99,698.000000,,2013-07-25 18:33:00,
2013-07-25 14:02:00,76.0,58.0,-100.00,SW,218,7.0,17.0,54,0.00,,,0.00,964.000000,,2013-07-25 19:02:00,
2013-07-25 14:12:00,76.0,58.0,-100.00,SW,218,7.0,17.0,54,0.00,,,0.00,964.000000,,2013-07-25 19:12:00,
2013-07-25 14:22:00,76.0,58.0,-100.00,SW,218,7.0,17.0,54,0.00,,,0.00,964.000000,,2013-07-25 19:22:00,
2013-07-25 14:33:00,76.0,58.0,-100.00,SW,218,7.0,17.0,54,0.00,,,0.00,964.000000,,2013-07-25 19:33:00,
2013-07-25 15:02:00,77.0,58.0,-100.00,WSW,244,7.0,15.0,52,0.00,,,0.00,916.000000,,2013-07-25 20:02:00,
2013-07-25 15:12:00,77.0,58.0,-100.00,WSW,244,7.0,15.0,52,0.00,,,0.00,916.000000,,2013-07-25 20:12:00,
2013-07-25 15:22:00,77.0,58.0,-100.00,WSW,244,7.0,15.0,52,0.00,,,0.00,916.000000,,2013-07-25 20:22:00,
2013-07-25 15:32:00,77.0,58.0,-100.00,WSW,244,7.0,15.0,52,0.00,,,0.00,916.000000,,2013-07-25 20:32:00,
2013-07-25 16:03:00,75.0,59.0,-100.00,SW,233,6.0,13.0,57,0.00,,,0.00,596.000000,,2013-07-25 21:03:00,
2013-07-25 16:12:00,75.0,59.0,-100.00,SW,233,6.0,13.0,57,0.00,,,0.00,596.000000,,2013-07-25 21:12:00,
2013-07-25 16:22:00,75.0,59.0,-100.00,SW,233,6.0,13.0,57,0.00,,,0.00,596.000000,,2013-07-25 21:22:00,
2013-07-25 16:32:00,75.0,59.0,-100.00,SW,233,6.0,13.0,57,0.00,,,0.00,596.000000,,2013-07-25 21:32:00,
2013-07-25 17:02:00,75.0,59.0,-100.00,WSW,245,4.0,9.0,58,0.00,,,0.00,472.000000,,2013-07-25 22:02:00,
2013-07-25 17:12:00,75.0,59.0,-100.00,WSW,245,4.0,9.0,58,0.00,,,0.00,472.000000,,2013-07-25 22:12:00,
2013-07-25 17:22:00,75.0,59.0,-100.00,WSW,245,4.0,9.0,58,0.00,,,0.00,472.000000,,2013-07-25 22:22:00,
2013-07-25 17:32:00,75.0,59.0,-100.00,WSW,245,4.0,9.0,58,0.00,,,0.00,472.000000,,2013-07-25 22:32:00,
2013-07-25 18:02:00,68.0,61.0,-100.00,ENE,62,6.0,17.0,79,0.00,,,0.00,120.000000,,2013-07-25 23:02:00,
2013-07-25 18:12:00,68.0,61.0,-100.00,ENE,62,6.0,17.0,79,0.00,,,0.00,120.000000,,2013-07-25 23:12:00,
2013-07-25 18:22:00,68.0,61.0,-100.00,ENE,62,6.0,17.0,79,0.00,,,0.00,120.000000,,2013-07-25 23:22:00,
2013-07-25 18:32:00,68.0,61.0,-100.00,ENE,62,6.0,17.0,79,0.00,,,0.00,120.000000,,2013-07-25 23:32:00,
2013-07-25 19:02:00,68.0,65.0,-100.00,ENE,74,4.0,8.0,89,0.10,,,0.10,295.000000,,2013-07-26 00:02:00,
2013-07-25 19:12:00,68.0,65.0,-100.00,ENE,74,4.0,8.0,89,0.10,,,0.10,295.000000,,2013-07-26 00:12:00,
2013-07-25 19:22:00,68.0,65.0,-100.00,ENE,74,4.0,8.0,89,0.10,,,0.10,295.000000,,2013-07-26 00:22:00,
2013-07-25 19:33:00,68.0,65.0,-100.00,ENE,74,4.0,8.0,89,0.10,,,0.10,295.000000,,2013-07-26 00:33:00,
2013-07-25 20:02:00,65.0,64.0,-100.00,South,180,2.0,8.0,95,0.00,,,0.10,116.000000,,2013-07-26 01:02:00,
2013-07-25 20:12:00,65.0,64.0,-100.00,South,180,2.0,8.0,95,0.00,,,0.10,116.000000,,2013-07-26 01:12:00,
2013-07-25 20:22:00,65.0,64.0,-100.00,South,180,2.0,8.0,95,0.00,,,0.10,116.000000,,2013-07-26 01:22:00,
2013-07-25 20:32:00,65.0,64.0,-100.00,South,180,2.0,8.0,95,0.00,,,0.10,116.000000,,2013-07-26 01:32:00,
2013-07-25 21:02:00,64.0,63.0,-100.00,SW,214,1.0,7.0,95,0.00,,,0.10,4.000000,,2013-07-26 02:02:00,
2013-07-25 21:12:00,64.0,63.0,-100.00,SW,214,1.0,7.0,95,0.00,,,0.10,4.000000,,2013-07-26 02:12:00,
2013-07-25 21:22:00,64.0,63.0,-100.00,SW,214,1.0,7.0,95,0.00,,,0.10,4.000000,,2013-07-26 02:22:00,
2013-07-25 21:32:00,64.0,63.0,-100.00,SW,214,1.0,7.0,95,0.00,,,0.10,4.000000,,2013-07-26 02:32:00,
2013-07-25 22:02:00,62.0,61.0,-100.00,SE,131,2.0,6.0,96,0.24,,,0.34,0.000000,,2013-07-26 03:02:00,
2013-07-25 22:12:00,62.0,61.0,-100.00,SE,131,2.0,6.0,96,0.24,,,0.34,0.000000,,2013-07-26 03:12:00,
2013-07-25 22:22:00,62.0,61.0,-100.00,SE,131,2.0,6.0,96,0.24,,,0.34,0.000000,,2013-07-26 03:22:00,
2013-07-25 22:32:00,62.0,61.0,-100.00,SE,131,2.0,6.0,96,0.24,,,0.34,0.000000,,2013-07-26 03:32:00,
2013-07-25 23:02:00,60.0,60.0,-100.00,SW,215,3.0,4.0,99,0.05,,,-99.99,0.000000,,2013-07-26 04:02:00,
2013-07-25 23:12:00,60.0,60.0,-100.00,SW,215,3.0,4.0,99,0.05,,,-99.99,0.000000,,2013-07-26 04:12:00,
2013-07-25 23:22:00,60.0,60.0,-100.00,SW,215,3.0,4.0,99,0.05,,,-99.99,0.000000,,2013-07-26 04:22:00,
2013-07-25 23:32:00,60.0,60.0,-100.00,SW,215,3.0,4.0,99,0.05,,,-99.99,0.000000,,2013-07-26 04:32:00,